createdAt,value
2023-07-27T00:01:39.576Z,85.48
2023-07-27T00:04:07.552Z,85.80
2023-07-27T00:06:35.706Z,85.71
2023-07-27T00:09:04.015Z,86.59
2023-07-27T00:11:36.378Z,85.75
2023-07-27T00:14:04.605Z,85.67
2023-07-27T00:16:32.867Z,85.21
2023-07-27T00:19:01.107Z,85.68
2023-07-27T00:21:29.637Z,86.32
2023-07-27T00:23:57.928Z,86.38
2023-07-27T00:26:25.974Z,86.62
2023-07-27T00:28:55.439Z,86.51
2023-07-27T00:31:23.940Z,86.57
2023-07-27T00:33:51.898Z,86.62
2023-07-27T00:36:20.274Z,86.80
2023-07-27T00:38:48.217Z,86.15
2023-07-27T00:41:16.300Z,86.56
2023-07-27T00:43:44.388Z,86.45
2023-07-27T00:46:13.808Z,85.71
2023-07-27T00:48:42.136Z,85.27
2023-07-27T00:51:10.742Z,84.66
2023-07-27T00:53:38.868Z,85.30
2023-07-27T00:56:07.402Z,85.56
2023-07-27T00:58:35.614Z,84.79
2023-07-27T01:01:05.170Z,84.20
2023-07-27T01:03:36.083Z,84.99
2023-07-27T01:06:04.365Z,84.48
2023-07-27T01:08:33.002Z,85.25
2023-07-27T01:11:11.423Z,85.40
2023-07-27T01:13:43.749Z,85.95
2023-07-27T01:16:14.768Z,86.47
2023-07-27T01:18:55.191Z,85.65
2023-07-27T01:21:30.318Z,86.59
2023-07-27T01:24:49.179Z,87.21
2023-07-27T01:27:39.970Z,86.97
2023-07-27T01:30:50.748Z,86.06
2023-07-27T01:33:23.945Z,86.56
2023-07-27T01:36:00.549Z,87.04
2023-07-27T01:38:31.297Z,87.30
2023-07-27T01:41:00.168Z,87.72
2023-07-27T01:43:30.157Z,88.28
2023-07-27T01:46:01.836Z,88.83
2023-07-27T01:48:30.387Z,89.05
2023-07-27T01:50:59.472Z,89.10
2023-07-27T01:53:29.683Z,88.84
2023-07-27T01:55:58.253Z,89.21
2023-07-27T01:58:27.370Z,88.98
2023-07-27T02:00:57.430Z,89.23
2023-07-27T02:03:27.801Z,89.78
2023-07-27T02:05:55.683Z,89.91
2023-07-27T02:08:23.597Z,89.99
2023-07-27T02:10:57.521Z,89.82
2023-07-27T02:13:33.880Z,89.68
2023-07-27T02:16:09.105Z,89.87
2023-07-27T02:18:39.967Z,90.30
2023-07-27T02:21:10.070Z,90.31
2023-07-27T02:23:38.330Z,90.67
2023-07-27T02:26:06.524Z,90.91
2023-07-27T02:28:36.045Z,91.24
2023-07-27T02:31:04.042Z,91.07
2023-07-27T02:33:32.033Z,90.97
2023-07-27T02:36:01.471Z,91.48
2023-07-27T02:38:29.442Z,91.23
2023-07-27T02:40:57.507Z,91.02
2023-07-27T02:43:26.681Z,90.92
2023-07-27T02:45:59.857Z,90.48
2023-07-27T02:48:28.312Z,90.64
2023-07-27T02:50:56.561Z,91.36
2023-07-27T02:53:25.950Z,91.29
2023-07-27T02:55:58.619Z,91.06
2023-07-27T02:58:26.558Z,90.65
2023-07-27T03:00:55.901Z,91.11
2023-07-27T03:03:24.097Z,91.35
2023-07-27T03:05:58.842Z,91.55
2023-07-27T03:08:28.598Z,92.02
2023-07-27T03:10:57.624Z,91.63
2023-07-27T03:13:25.532Z,92.66
2023-07-27T03:15:53.462Z,92.72
2023-07-27T03:18:22.935Z,92.95
2023-07-27T03:20:50.926Z,92.56
2023-07-27T03:23:18.949Z,92.80
2023-07-27T03:25:49.158Z,92.23
2023-07-27T03:28:17.015Z,92.77
2023-07-27T03:30:46.170Z,92.59
2023-07-27T03:33:14.209Z,92.51
2023-07-27T03:35:43.895Z,92.80
2023-07-27T03:38:11.823Z,92.63
2023-07-27T03:40:39.977Z,92.54
2023-07-27T03:43:09.240Z,92.06
2023-07-27T03:45:37.134Z,91.48
2023-07-27T03:48:05.648Z,91.33
2023-07-27T03:50:33.739Z,91.30
2023-07-27T03:53:01.590Z,91.20
2023-07-27T03:55:30.753Z,90.23
2023-07-27T03:57:58.623Z,90.41
2023-07-27T04:00:28.027Z,90.08
2023-07-27T04:02:56.163Z,89.29
2023-07-27T04:05:24.064Z,89.14
2023-07-27T04:07:53.291Z,89.36
2023-07-27T04:10:21.523Z,88.80
2023-07-27T04:12:49.606Z,88.27
2023-07-27T04:15:17.512Z,88.91
2023-07-27T04:17:47.582Z,88.24
2023-07-27T04:20:15.533Z,88.38
2023-07-27T04:22:43.472Z,87.94
2023-07-27T04:25:11.747Z,87.88
2023-07-27T04:27:39.666Z,87.56
2023-07-27T04:30:08.973Z,87.67
2023-07-27T04:32:36.947Z,86.61
2023-07-27T04:35:07.415Z,86.23
2023-07-27T04:37:36.319Z,87.15
2023-07-27T04:40:07.985Z,87.09
2023-07-27T04:42:36.214Z,86.50
2023-07-27T04:45:04.380Z,85.49
2023-07-27T04:47:32.348Z,86.70
2023-07-27T04:50:00.219Z,85.25
2023-07-27T04:52:30.361Z,85.30
2023-07-27T04:54:58.290Z,84.44
2023-07-27T04:57:26.132Z,84.34
2023-07-27T04:59:53.987Z,83.91
2023-07-27T05:02:22.012Z,83.04
2023-07-27T05:04:52.046Z,82.93
2023-07-27T05:07:20.446Z,82.32
2023-07-27T05:09:50.226Z,82.06
2023-07-27T05:12:18.410Z,82.33
2023-07-27T05:14:47.346Z,81.75
2023-07-27T05:17:15.577Z,81.71
2023-07-27T05:19:43.514Z,81.67
2023-07-27T05:22:11.434Z,81.47
2023-07-27T05:24:39.876Z,82.37
2023-07-27T05:27:09.349Z,82.35
2023-07-27T05:29:37.575Z,82.49
2023-07-27T05:32:06.424Z,82.39
2023-07-27T05:34:35.781Z,82.73
2023-07-27T05:37:03.907Z,82.25
2023-07-27T05:39:32.750Z,82.33
2023-07-27T05:42:00.877Z,82.79
2023-07-27T05:44:30.368Z,82.03
2023-07-27T05:46:58.557Z,81.67
2023-07-27T05:49:27.716Z,80.09
2023-07-27T05:51:55.633Z,78.85
2023-07-27T05:54:23.874Z,79.11
2023-07-27T05:56:52.095Z,77.78
2023-07-27T05:59:20.112Z,77.72
2023-07-27T06:01:49.621Z,76.38
2023-07-27T06:04:18.376Z,75.89
2023-07-27T06:06:46.974Z,75.70
2023-07-27T06:09:15.738Z,76.31
2023-07-27T06:11:43.936Z,76.11
2023-07-27T06:14:11.795Z,75.39
2023-07-27T06:16:39.772Z,75.36
2023-07-27T06:19:09.074Z,75.73
2023-07-27T06:21:37.337Z,75.89
2023-07-27T06:24:06.011Z,76.17
2023-07-27T06:26:34.568Z,75.52
2023-07-27T06:29:03.129Z,75.47
2023-07-27T06:31:31.202Z,74.84
2023-07-27T06:33:59.320Z,75.42
2023-07-27T06:36:28.580Z,75.01
2023-07-27T06:38:56.602Z,75.62
2023-07-27T06:41:27.195Z,76.39
2023-07-27T06:43:55.054Z,76.50
2023-07-27T06:46:24.321Z,75.97
2023-07-27T06:48:52.859Z,76.06
2023-07-27T06:51:20.708Z,75.45
2023-07-27T06:53:50.097Z,75.12
2023-07-27T06:56:18.305Z,75.32
2023-07-27T06:58:46.583Z,75.49
2023-07-27T07:01:14.613Z,74.75
2023-07-27T07:03:42.669Z,74.01
2023-07-27T07:06:11.506Z,73.88
2023-07-27T07:08:40.088Z,73.27
2023-07-27T07:11:09.836Z,72.44
2023-07-27T07:13:37.883Z,71.37
2023-07-27T07:16:07.161Z,70.99
2023-07-27T07:18:35.155Z,71.21
2023-07-27T07:21:03.278Z,71.05
2023-07-27T07:23:31.452Z,71.05
2023-07-27T07:25:59.675Z,71.96
2023-07-27T07:28:28.951Z,72.04
2023-07-27T07:30:56.956Z,73.09
2023-07-27T07:33:37.544Z,73.00
2023-07-27T07:36:05.968Z,73.41
2023-07-27T07:38:34.069Z,73.05
2023-07-27T07:41:01.966Z,73.46
2023-07-27T07:43:33.380Z,73.14
2023-07-27T07:46:01.673Z,74.22
2023-07-27T07:48:29.652Z,74.21
2023-07-27T07:50:57.583Z,73.74
2023-07-27T07:53:34.861Z,73.33
2023-07-27T07:56:03.880Z,73.16
2023-07-27T07:58:33.393Z,72.51
2023-07-27T08:01:01.272Z,73.00
2023-07-27T08:03:29.421Z,73.06
2023-07-27T08:05:59.782Z,72.51
2023-07-27T08:08:28.936Z,73.70
2023-07-27T08:11:02.617Z,72.60
2023-07-27T08:13:30.607Z,72.53
2023-07-27T08:16:00.208Z,72.80
2023-07-27T08:18:30.264Z,73.76
2023-07-27T08:21:02.235Z,72.72
2023-07-27T08:23:30.259Z,72.32
2023-07-27T08:25:58.333Z,72.21
2023-07-27T08:28:27.609Z,73.45
2023-07-27T08:30:55.817Z,72.57
2023-07-27T08:33:26.183Z,72.01
2023-07-27T08:35:54.130Z,71.96
2023-07-27T08:38:22.130Z,71.58
2023-07-27T08:40:56.808Z,70.70
2023-07-27T08:43:25.575Z,71.49
2023-07-27T08:45:54.314Z,71.89
2023-07-27T08:48:22.741Z,72.26
2023-07-27T08:50:53.027Z,71.35
2023-07-27T08:53:21.325Z,72.20
2023-07-27T08:55:49.253Z,71.33
2023-07-27T08:58:17.414Z,71.34
2023-07-27T09:00:45.251Z,71.00
2023-07-27T09:03:14.611Z,70.71
2023-07-27T09:05:44.335Z,71.18
2023-07-27T09:08:16.658Z,71.92
2023-07-27T09:10:46.879Z,72.83
2023-07-27T09:13:15.041Z,73.25
2023-07-27T09:15:46.676Z,72.42
2023-07-27T09:18:16.112Z,73.80
2023-07-27T09:20:45.071Z,73.38
2023-07-27T09:23:22.196Z,72.41
2023-07-27T09:25:56.308Z,72.37
2023-07-27T09:28:28.993Z,72.30
2023-07-27T09:31:00.022Z,71.94
2023-07-27T09:33:28.300Z,71.24
2023-07-27T09:35:57.490Z,70.60
2023-07-27T09:38:28.379Z,69.93
2023-07-27T09:40:56.722Z,68.51
2023-07-27T09:43:25.725Z,67.98
2023-07-27T09:46:00.996Z,67.04
2023-07-27T09:48:31.235Z,66.46
2023-07-27T09:51:00.754Z,66.34
2023-07-27T09:53:32.058Z,67.04
2023-07-27T09:56:01.298Z,66.63
2023-07-27T09:58:30.538Z,66.09
2023-07-27T10:00:58.445Z,66.98
2023-07-27T10:03:27.003Z,66.78
2023-07-27T10:05:55.936Z,65.87
2023-07-27T10:08:24.610Z,65.95
2023-07-27T10:10:56.634Z,66.57
2023-07-27T10:13:39.196Z,65.77
2023-07-27T10:16:11.113Z,66.35
2023-07-27T10:18:43.928Z,66.78
2023-07-27T10:21:25.623Z,65.57
2023-07-27T10:23:58.786Z,66.15
2023-07-27T10:26:53.153Z,66.60
2023-07-27T10:29:22.992Z,65.80
2023-07-27T10:32:04.921Z,65.15
2023-07-27T10:34:40.753Z,65.62
2023-07-27T10:37:10.910Z,65.50
2023-07-27T10:39:48.313Z,65.85
2023-07-27T10:42:20.414Z,66.16
2023-07-27T10:44:50.472Z,65.96
2023-07-27T10:47:22.107Z,66.15
2023-07-27T10:49:51.134Z,66.08
2023-07-27T10:52:20.537Z,67.04
2023-07-27T10:54:50.079Z,66.85
2023-07-27T10:57:21.929Z,67.06
2023-07-27T10:59:51.857Z,66.79
2023-07-27T11:02:22.990Z,66.67
2023-07-27T11:04:52.105Z,65.57
2023-07-27T11:07:28.683Z,65.62
2023-07-27T11:09:56.884Z,67.75
2023-07-27T11:12:26.922Z,68.56
2023-07-27T11:14:55.113Z,68.38
2023-07-27T11:17:23.097Z,67.69
2023-07-27T11:19:53.622Z,67.31
2023-07-27T11:22:22.754Z,68.61
2023-07-27T11:24:50.915Z,68.55
2023-07-27T11:27:18.869Z,67.21
2023-07-27T11:29:50.780Z,68.01
2023-07-27T11:32:25.640Z,69.15
2023-07-27T11:34:56.133Z,69.06
2023-07-27T11:37:26.559Z,70.01
2023-07-27T11:39:54.491Z,69.16
2023-07-27T11:42:28.916Z,69.16
2023-07-27T11:47:40.067Z,70.58
2023-07-27T11:50:10.307Z,68.56
2023-07-27T11:52:39.966Z,68.52
2023-07-27T11:55:08.545Z,68.73
2023-07-27T11:57:36.576Z,68.61
2023-07-27T12:00:13.390Z,68.92
2023-07-27T12:02:43.412Z,68.00
2023-07-27T12:05:14.774Z,67.87
2023-07-27T12:10:15.019Z,67.40
2023-07-27T12:12:49.679Z,66.82
2023-07-27T12:15:29.132Z,66.38
2023-07-27T12:18:00.839Z,66.41
2023-07-27T12:20:55.780Z,66.69
2023-07-27T12:26:28.371Z,65.95
2023-07-27T12:28:41.104Z,65.13
2023-07-27T12:33:42.803Z,65.04
2023-07-27T12:36:10.961Z,65.55
2023-07-27T12:41:09.514Z,66.52
2023-07-27T12:43:37.424Z,67.08
2023-07-27T12:46:06.203Z,68.68
2023-07-27T12:48:34.283Z,68.45
2023-07-27T12:51:03.589Z,69.57
2023-07-27T12:53:31.434Z,69.51
2023-07-27T12:56:01.060Z,69.10
2023-07-27T12:58:28.975Z,68.66
2023-07-27T13:00:56.830Z,69.17
2023-07-27T13:03:24.899Z,69.09
2023-07-27T13:05:52.869Z,69.85
2023-07-27T13:08:22.102Z,71.38
2023-07-27T13:10:50.095Z,70.25
2023-07-27T13:13:18.150Z,67.92
2023-07-27T13:15:46.140Z,67.91
2023-07-27T13:18:14.095Z,68.06
2023-07-27T13:20:44.067Z,66.36
2023-07-27T13:23:12.045Z,66.09
2023-07-27T13:25:47.597Z,67.25
2023-07-27T13:28:15.561Z,67.44
2023-07-27T13:30:43.547Z,67.81
2023-07-27T13:33:11.595Z,67.98
2023-07-27T13:35:39.899Z,67.86
2023-07-27T13:38:07.824Z,66.96
2023-07-27T13:40:35.917Z,67.40
2023-07-27T13:43:05.318Z,67.42
2023-07-27T13:45:33.210Z,68.25
2023-07-27T13:48:09.047Z,67.13
2023-07-27T13:50:38.947Z,67.04
2023-07-27T13:53:07.072Z,66.07
2023-07-27T13:55:34.958Z,65.08
2023-07-27T13:58:03.061Z,65.35
2023-07-27T14:00:32.336Z,64.32
2023-07-27T14:03:00.412Z,63.83
2023-07-27T14:05:28.419Z,63.61
2023-07-27T14:07:56.447Z,64.23
2023-07-27T14:10:24.522Z,64.18
2023-07-27T14:12:52.441Z,64.28
2023-07-27T14:15:20.564Z,64.28
2023-07-27T14:17:49.959Z,64.75
2023-07-27T14:20:18.090Z,64.74
2023-07-27T14:22:46.053Z,64.26
2023-07-27T14:25:14.147Z,64.96
2023-07-27T14:27:42.026Z,65.52
2023-07-27T14:30:10.282Z,65.88
2023-07-27T14:32:38.275Z,66.46
2023-07-27T14:35:08.069Z,66.28
2023-07-27T14:37:36.019Z,66.41
2023-07-27T14:40:04.733Z,66.86
2023-07-27T14:42:32.636Z,66.80
2023-07-27T14:45:00.653Z,67.24
2023-07-27T14:47:28.655Z,67.43
2023-07-27T14:49:57.991Z,67.14
2023-07-27T14:52:30.282Z,68.12
2023-07-27T14:54:58.166Z,68.82
2023-07-27T14:57:26.057Z,69.27
2023-07-27T14:59:58.119Z,70.21
2023-07-27T15:02:45.634Z,70.77
2023-07-27T15:05:14.335Z,72.10
2023-07-27T15:07:43.740Z,73.31
2023-07-27T15:10:29.170Z,73.15
2023-07-27T15:13:00.094Z,73.33
2023-07-27T15:15:28.285Z,72.76
2023-07-27T15:17:56.375Z,73.08
2023-07-27T15:20:24.347Z,72.92
2023-07-27T15:22:54.414Z,73.64
2023-07-27T15:25:22.472Z,74.70
2023-07-27T15:27:50.551Z,74.82
2023-07-27T15:30:18.628Z,75.37
2023-07-27T15:32:46.643Z,75.23
2023-07-27T15:35:14.600Z,74.61
2023-07-27T15:37:42.466Z,74.98
2023-07-27T15:40:12.605Z,74.70
2023-07-27T15:42:40.610Z,74.76
2023-07-27T15:45:09.548Z,75.53
2023-07-27T15:47:37.720Z,75.11
2023-07-27T15:50:06.850Z,76.24
2023-07-27T15:52:34.859Z,76.92
2023-07-27T15:55:02.806Z,76.72
2023-07-27T15:57:32.190Z,77.76
2023-07-27T16:00:02.185Z,77.44
2023-07-27T16:02:30.650Z,77.05
2023-07-27T16:04:58.651Z,76.62
2023-07-27T16:07:26.747Z,77.38
2023-07-27T16:09:57.133Z,78.31
2023-07-27T16:12:27.761Z,78.67
2023-07-27T16:14:57.959Z,78.15
2023-07-27T16:17:27.495Z,77.71
2023-07-27T16:19:55.882Z,77.73
2023-07-27T16:22:24.408Z,77.63
2023-07-27T16:24:53.404Z,77.38
2023-07-27T16:27:23.298Z,77.87
2023-07-27T16:29:51.293Z,77.53
2023-07-27T16:32:21.192Z,77.49
2023-07-27T16:34:57.314Z,77.52
2023-07-27T16:37:25.477Z,77.97
2023-07-27T16:39:54.209Z,78.45
2023-07-27T16:42:22.056Z,77.80
2023-07-27T16:44:50.027Z,77.45
2023-07-27T16:47:20.321Z,77.18
2023-07-27T16:49:50.129Z,77.09
2023-07-27T16:52:17.996Z,77.80
2023-07-27T16:54:45.933Z,78.24
2023-07-27T16:57:14.046Z,78.24
2023-07-27T16:59:42.045Z,78.18
2023-07-27T17:02:12.704Z,79.17
2023-07-27T17:04:41.557Z,78.42
2023-07-27T17:07:11.176Z,78.74
2023-07-27T17:09:39.472Z,78.38
2023-07-27T17:12:10.352Z,78.06
2023-07-27T17:14:41.922Z,78.21
2023-07-27T17:17:09.947Z,78.59
2023-07-27T17:19:37.864Z,78.96
2023-07-27T17:22:06.638Z,78.23
2023-07-27T17:24:36.243Z,78.67
2023-07-27T17:27:04.225Z,78.06
2023-07-27T17:29:32.072Z,78.78
2023-07-27T17:32:01.997Z,78.35
2023-07-27T17:34:32.785Z,78.36
2023-07-27T17:37:01.012Z,78.61
2023-07-27T17:39:29.298Z,79.41
2023-07-27T17:41:58.606Z,79.46
2023-07-27T17:44:26.533Z,79.72
2023-07-27T17:46:54.522Z,79.76
2023-07-27T17:49:22.672Z,80.86
2023-07-27T17:51:50.594Z,80.81
2023-07-27T17:54:18.563Z,79.91
2023-07-27T17:56:46.502Z,80.47
2023-07-27T17:59:15.808Z,79.97
2023-07-27T18:01:43.994Z,80.55
2023-07-27T18:04:11.894Z,81.49
2023-07-27T18:06:39.841Z,81.54
2023-07-27T18:09:08.209Z,81.34
2023-07-27T18:11:36.402Z,81.11
2023-07-27T18:14:04.626Z,80.73
2023-07-27T18:16:34.151Z,81.28
2023-07-27T18:19:02.341Z,81.13
2023-07-27T18:21:30.274Z,81.27
2023-07-27T18:23:58.219Z,81.17
2023-07-27T18:26:26.107Z,81.30
2023-07-27T18:28:54.082Z,81.44
2023-07-27T18:31:22.141Z,81.59
2023-07-27T18:33:52.836Z,81.24
2023-07-27T18:36:21.139Z,81.45
2023-07-27T18:38:49.874Z,81.16
2023-07-27T18:41:18.298Z,81.65
2023-07-27T18:43:46.330Z,81.89
2023-07-27T18:46:19.108Z,81.66
2023-07-27T18:48:48.318Z,81.52
2023-07-27T18:51:17.700Z,81.47
2023-07-27T18:53:45.785Z,81.92
2023-07-27T18:56:14.366Z,81.89
2023-07-27T18:58:42.287Z,82.31
2023-07-27T19:01:39.299Z,82.37
2023-07-27T19:04:19.637Z,83.32
2023-07-27T19:06:49.483Z,83.23
2023-07-27T19:09:20.024Z,83.45
2023-07-27T19:11:47.982Z,83.88
2023-07-27T19:14:19.891Z,84.29
2023-07-27T19:16:47.938Z,83.98
2023-07-27T19:19:15.941Z,85.11
2023-07-27T19:21:44.391Z,84.87
2023-07-27T19:24:15.871Z,84.98
2023-07-27T19:26:43.938Z,85.61
2023-07-27T19:29:11.938Z,85.24
2023-07-27T19:31:40.340Z,85.76
2023-07-27T19:34:08.243Z,86.32
2023-07-27T19:36:36.618Z,86.55
2023-07-27T19:39:04.909Z,87.38
2023-07-27T19:41:37.022Z,88.55
2023-07-27T19:44:05.032Z,89.26
2023-07-27T19:46:33.270Z,89.85
2023-07-27T19:49:01.314Z,90.67
2023-07-27T19:51:29.256Z,90.38
2023-07-27T19:53:57.171Z,90.70
2023-07-27T19:56:25.100Z,90.81
2023-07-27T19:58:54.334Z,91.77
2023-07-27T20:01:22.303Z,91.58
2023-07-27T20:03:50.338Z,91.88
2023-07-27T20:06:18.794Z,92.22
2023-07-27T20:08:49.518Z,92.82
2023-07-27T20:11:18.064Z,93.11
2023-07-27T20:13:47.254Z,93.33
2023-07-27T20:16:16.754Z,93.15
2023-07-27T20:18:46.655Z,93.48
2023-07-27T20:21:15.539Z,94.05
2023-07-27T20:23:44.465Z,94.24
2023-07-27T20:26:13.001Z,94.48
2023-07-27T20:28:40.902Z,94.73
2023-07-27T20:31:09.804Z,95.03
2023-07-27T20:33:39.645Z,96.03
2023-07-27T20:36:08.168Z,95.68
2023-07-27T20:38:35.138Z,95.40
2023-07-27T20:41:06.870Z,96.20
2023-07-27T20:43:34.773Z,95.55
2023-07-27T20:46:03.459Z,94.91
2023-07-27T20:48:33.762Z,95.15
2023-07-27T20:51:06.317Z,95.62
2023-07-27T20:53:35.981Z,96.47
2023-07-27T20:56:11.824Z,96.23
2023-07-27T20:58:39.806Z,95.57
2023-07-27T21:01:07.814Z,95.81
2023-07-27T21:03:36.036Z,95.19
2023-07-27T21:06:06.257Z,95.35
2023-07-27T21:08:35.714Z,95.84
2023-07-27T21:11:04.154Z,95.72
2023-07-27T21:13:32.231Z,96.98
2023-07-27T21:16:01.326Z,97.02
2023-07-27T21:18:29.487Z,97.85
2023-07-27T21:20:58.110Z,97.91
2023-07-27T21:23:27.652Z,98.25
2023-07-27T21:26:00.753Z,97.98
2023-07-27T21:28:29.140Z,97.67
2023-07-27T21:30:57.568Z,98.39
2023-07-27T21:33:29.261Z,98.71
2023-07-27T21:35:57.986Z,99.10
2023-07-27T21:38:27.332Z,99.09
2023-07-27T21:40:58.298Z,98.54
2023-07-27T21:43:26.155Z,98.17
2023-07-27T21:45:54.805Z,99.23
2023-07-27T21:48:23.307Z,99.26
2023-07-27T21:50:52.854Z,99.31
2023-07-27T21:53:21.145Z,99.96
2023-07-27T21:55:50.504Z,99.92
2023-07-27T21:58:19.912Z,99.22
2023-07-27T22:00:48.020Z,100.00
2023-07-27T22:03:15.946Z,100.00
2023-07-27T22:05:44.907Z,100.00
2023-07-27T22:08:13.066Z,100.00
2023-07-27T22:10:41.014Z,99.77
2023-07-27T22:13:10.416Z,99.99
2023-07-27T22:15:38.628Z,99.86
2023-07-27T22:18:11.917Z,99.79
2023-07-27T22:20:46.265Z,100.00
2023-07-27T22:23:14.209Z,100.00
2023-07-27T22:25:43.690Z,100.00
2023-07-27T22:28:13.813Z,100.00
2023-07-27T22:30:46.366Z,100.00
2023-07-27T22:33:14.540Z,100.00
2023-07-27T22:35:44.324Z,100.00
2023-07-27T22:38:12.434Z,100.00
2023-07-27T22:40:50.256Z,100.00
2023-07-27T22:43:19.534Z,100.00
2023-07-27T22:45:47.643Z,100.00
2023-07-27T22:48:15.626Z,100.00
2023-07-27T22:50:43.649Z,100.00
2023-07-27T22:53:11.555Z,100.00
2023-07-27T22:55:44.732Z,100.00
2023-07-27T22:58:13.181Z,100.00
2023-07-27T23:00:42.482Z,100.00
2023-07-27T23:03:11.095Z,100.00
2023-07-27T23:05:40.541Z,100.00
2023-07-27T23:08:09.968Z,100.00
2023-07-27T23:10:39.554Z,100.00
2023-07-27T23:13:07.449Z,100.00
2023-07-27T23:15:36.470Z,100.00
2023-07-27T23:18:06.196Z,100.00
2023-07-27T23:20:34.069Z,100.00
2023-07-27T23:23:02.970Z,100.00
2023-07-27T23:25:31.046Z,100.00
2023-07-27T23:27:59.211Z,100.00
2023-07-27T23:30:27.173Z,100.00
2023-07-27T23:32:55.350Z,100.00
2023-07-27T23:35:24.667Z,100.00
2023-07-27T23:37:52.637Z,100.00
2023-07-27T23:40:20.572Z,100.00
2023-07-27T23:42:48.491Z,100.00
2023-07-27T23:45:16.335Z,100.00
2023-07-27T23:47:44.314Z,100.00
2023-07-27T23:50:12.220Z,100.00
2023-07-27T23:52:41.456Z,100.00
2023-07-27T23:55:11.923Z,100.00
2023-07-27T23:57:39.809Z,100.00
